Weather reports worldwide

Advertisment
Torino Venaria, Italy (16060): temperature & dewpoint: 26.10.2020 02:00:00 - 01.11.2020 02:00:00 (CET)Torino Venaria, Italy (16060): wind speed: 26.10.2020 02:00:00 - 01.11.2020 02:00:00 (CET)Torino Venaria, Italy (16060): wind direction: 26.10.2020 02:00:00 - 01.11.2020 02:00:00 (CET)Torino Venaria, Italy (16060): reduced air pressure: 26.10.2020 02:00:00 - 01.11.2020 02:00:00 (CET)Torino Venaria, Italy (16060): precipitation: 26.10.2020 02:00:00 - 01.11.2020 02:00:00 (CET)
Date & Time tt [°C] td [°C] ff [km/h] ff [kn] dd ppp [hPa] rr [mm]
01.11.2020 02:00:00 - - - - - - -
01.11.2020 01:00:00 4,5 4,5 4 2 NW 1021,4 0,0
01.11.2020 00:00:00 5,6 5,6 2 1 WNW 1021,3 -
31.10.2020 23:00:00 5,8 5,8 2 1 NW 1021,5 -
31.10.2020 22:00:00 6,1 6,1 2 1 N 1021,2 -
31.10.2020 21:00:00 5,6 5,0 4 2 NW 1021,3 -
31.10.2020 20:00:00 5,9 4,2 4 2 WNW 1021,2 -
31.10.2020 19:00:00 8,2 4,7 2 1 N 1020,9 0,0
31.10.2020 18:00:00 12,1 10,5 4 2 ENE 1020,3 -
31.10.2020 17:00:00 14,0 10,9 4 2 ENE 1019,9 -
31.10.2020 16:00:00 15,4 11,7 8 4 E 1019,5 -
31.10.2020 15:00:00 15,8 11,1 5 3 E 1019,6 -
31.10.2020 14:00:00 15,4 15,3 4 2 ENE 1020,0 -
31.10.2020 13:00:00 11,3 11,3 4 2 ENE 1021,3 0,0
31.10.2020 12:00:00 9,8 9,8 4 2 E 1022,1 -
31.10.2020 11:00:00 9,1 9,1 2 1 NE 1022,5 -
31.10.2020 10:00:00 8,2 8,2 4 2 ENE 1022,9 -
31.10.2020 09:00:00 4,4 4,4 2 1 WNW 1023,3 -
31.10.2020 08:00:00 1,9 1,9 4 2 W 1023,5 -
31.10.2020 07:00:00 1,7 1,7 2 1 W 1023,1 -
31.10.2020 06:00:00 2,8 2,7 4 2 WNW 1023,1 -
31.10.2020 05:00:00 2,3 1,9 4 2 WNW 1023,1 -
31.10.2020 04:00:00 2,6 2,5 0 0 N 1023,2 -
31.10.2020 03:00:00 3,2 3,1 4 2 WNW 1023,4 -
31.10.2020 02:00:00 4,4 4,4 5 3 WNW 1023,6 -
31.10.2020 01:00:00 4,5 4,2 5 3 NW 1023,6 0,0
31.10.2020 00:00:00 4,2 3,6 5 3 WNW 1023,7 -
30.10.2020 23:00:00 5,0 4,3 4 2 NW 1023,6 -
30.10.2020 22:00:00 5,3 3,6 4 2 WNW 1023,5 -
30.10.2020 21:00:00 7,7 6,8 8 4 WNW 1022,6 -
30.10.2020 20:00:00 9,0 6,8 4 2 NW 1022,4 -
30.10.2020 19:00:00 9,5 5,2 4 2 W 1021,8 0,0
30.10.2020 18:00:00 12,6 5,2 2 1 NW 1021,1 -
30.10.2020 17:00:00 17,7 9,5 2 1 WNW 1020,0 -
30.10.2020 16:00:00 18,0 9,0 4 2 WSW 1019,9 -
30.10.2020 15:00:00 18,5 9,0 4 2 WSW 1019,8 -
30.10.2020 14:00:00 17,4 9,2 4 2 S 1020,1 -
30.10.2020 13:00:00 17,1 9,2 5 3 SSW 1020,6 0,0
30.10.2020 12:00:00 15,2 10,3 4 2 S 1021,1 -
30.10.2020 11:00:00 13,2 13,1 4 2 S 1021,6 -
30.10.2020 10:00:00 9,0 9,0 0 0 N 1022,1 -
30.10.2020 09:00:00 5,4 5,4 4 2 WNW 1022,5 -
30.10.2020 08:00:00 2,2 2,2 2 1 NW 1022,4 -
30.10.2020 07:00:00 2,1 2,1 4 2 W 1022,1 -
30.10.2020 06:00:00 2,8 2,8 4 2 WNW 1022,3 -
30.10.2020 05:00:00 2,0 1,7 8 4 WNW 1022,1 -
30.10.2020 04:00:00 3,1 3,1 2 1 WNW 1021,3 -
30.10.2020 03:00:00 2,7 2,4 4 2 W 1021,3 -
30.10.2020 02:00:00 3,3 3,0 2 1 W 1021,1 -
30.10.2020 01:00:00 4,4 4,4 4 2 NNW 1021,0 -
30.10.2020 00:00:00 3,8 3,4 5 3 SSW 1021,0 -
29.10.2020 23:00:00 4,8 4,4 4 2 ESE 1021,0 -
29.10.2020 22:00:00 5,1 4,5 2 1 W 1020,9 -
29.10.2020 21:00:00 5,4 4,2 4 2 W 1020,1 -
29.10.2020 20:00:00 6,2 4,3 4 2 WNW 1019,7 -
29.10.2020 19:00:00 7,8 4,0 0 0 N 1018,8 0,0
29.10.2020 18:00:00 11,1 4,5 2 1 NW 1017,5 -
29.10.2020 17:00:00 15,1 7,8 0 0 N 1016,5 -
29.10.2020 16:00:00 15,5 6,9 2 1 SW 1016,2 -
29.10.2020 15:00:00 15,6 7,5 2 1 W 1016,0 -
29.10.2020 14:00:00 14,7 7,7 2 1 N 1016,3 -
29.10.2020 13:00:00 13,4 6,9 4 2 NE 1016,9 0,0
29.10.2020 12:00:00 12,0 7,9 4 2 NNE 1017,5 -
29.10.2020 11:00:00 11,1 10,6 2 1 S 1017,7 -
29.10.2020 10:00:00 8,2 8,2 2 1 NE 1017,8 -
29.10.2020 09:00:00 4,7 4,7 2 1 W 1018,0 -
29.10.2020 08:00:00 2,1 2,1 2 1 NNW 1017,4 -
29.10.2020 07:00:00 2,9 2,9 2 1 N 1016,8 0,0
29.10.2020 06:00:00 3,3 3,3 4 2 NW 1016,5 -
29.10.2020 05:00:00 2,8 2,7 4 2 NW 1016,3 -
29.10.2020 04:00:00 3,6 3,5 5 3 NW 1016,5 -
29.10.2020 03:00:00 3,7 3,7 5 3 WNW 1017,0 -
29.10.2020 02:00:00 3,3 3,2 4 2 NW 1016,9 -
29.10.2020 01:00:00 3,4 2,8 4 2 WNW 1017,1 0,0
29.10.2020 00:00:00 3,6 2,9 0 0 N 1016,9 -
28.10.2020 23:00:00 3,7 2,3 0 0 N 1017,1 -
28.10.2020 22:00:00 3,9 1,4 4 2 NNW 1017,1 -
28.10.2020 21:00:00 6,1 3,6 4 2 NW 1016,7 -
28.10.2020 20:00:00 7,6 4,7 4 2 WNW 1016,4 -
28.10.2020 19:00:00 8,5 3,7 5 3 WNW 1016,2 0,0
28.10.2020 18:00:00 11,8 3,0 5 3 NNW 1015,3 -
28.10.2020 17:00:00 15,3 5,7 4 2 WSW 1014,5 -
28.10.2020 16:00:00 15,9 4,5 8 4 SW 1014,3 -
28.10.2020 15:00:00 17,0 4,9 4 2 SSE 1014,1 -
28.10.2020 14:00:00 16,8 5,3 4 2 S 1014,1 -
28.10.2020 13:00:00 16,4 5,6 4 2 SSW 1014,6 -
28.10.2020 12:00:00 14,6 5,8 5 3 ESE 1015,6 -
28.10.2020 11:00:00 12,7 6,7 4 2 E 1015,8 -
28.10.2020 10:00:00 10,6 10,4 0 0 N 1016,3 -
28.10.2020 09:00:00 6,4 6,4 2 1 WNW 1016,4 -
28.10.2020 08:00:00 3,1 3,1 4 2 WNW 1016,6 -
28.10.2020 07:00:00 2,8 2,8 2 1 WNW 1016,0 0,0
28.10.2020 06:00:00 2,5 2,4 4 2 WNW 1015,9 -
28.10.2020 05:00:00 2,2 1,6 0 0 N 1015,7 -
28.10.2020 04:00:00 2,8 2,4 2 1 NW 1015,5 -
28.10.2020 03:00:00 2,9 2,6 4 2 W 1015,5 -
28.10.2020 02:00:00 4,8 4,8 4 2 WNW 1015,5 -
28.10.2020 01:00:00 3,4 3,0 2 1 W 1015,5 0,0
28.10.2020 00:00:00 3,4 2,7 4 2 WNW 1015,0 -
27.10.2020 23:00:00 3,9 3,0 4 2 WNW 1014,6 -
27.10.2020 22:00:00 4,3 2,8 4 2 NW 1013,9 -
27.10.2020 21:00:00 5,6 3,6 4 2 NW 1013,1 -
27.10.2020 20:00:00 5,3 2,1 4 2 W 1012,1 -
27.10.2020 19:00:00 7,0 2,0 5 3 WNW 1011,2 0,0
27.10.2020 18:00:00 11,7 2,6 5 3 W 1009,6 -
27.10.2020 17:00:00 16,1 5,0 5 3 WSW 1008,1 -
27.10.2020 16:00:00 16,9 4,5 8 4 W 1007,5 -
27.10.2020 15:00:00 16,3 3,6 4 2 NW 1007,0 -
27.10.2020 14:00:00 16,2 4,5 4 2 W 1006,8 -
27.10.2020 13:00:00 15,3 6,5 5 3 S 1006,8 0,0
27.10.2020 12:00:00 14,2 7,0 8 4 S 1006,9 -
27.10.2020 11:00:00 13,1 5,9 5 3 S 1006,3 -
27.10.2020 10:00:00 10,6 9,5 8 4 SSW 1006,5 -
27.10.2020 09:00:00 5,7 5,7 0 0 N 1006,9 -
27.10.2020 08:00:00 4,2 4,2 4 2 NW 1006,8 -
27.10.2020 07:00:00 3,8 2,8 4 2 W 1006,6 -
27.10.2020 06:00:00 6,8 6,5 4 2 N 1005,8 -
27.10.2020 05:00:00 7,8 7,3 8 4 S 1004,6 -
27.10.2020 04:00:00 8,0 8,0 15 8 SSW 1004,2 -
27.10.2020 03:00:00 7,2 7,1 5 3 SSW 1004,6 -
27.10.2020 02:00:00 8,5 8,2 11 6 W 1004,6 -
27.10.2020 01:00:00 9,2 8,9 9 5 E 1004,0 0,0
27.10.2020 00:00:00 9,6 9,6 15 8 E 1003,1 -
26.10.2020 23:00:00 10,2 10,2 4 2 NE 1002,0 -
26.10.2020 22:00:00 9,9 9,9 4 2 NW 1002,0 -
26.10.2020 21:00:00 10,6 10,6 0 0 N 1001,8 -
26.10.2020 20:00:00 11,0 11,0 4 2 W 1001,6 -
26.10.2020 19:00:00 11,5 11,5 2 1 NNE 1001,5 -
26.10.2020 18:00:00 11,9 11,9 4 2 NE 1000,9 -
26.10.2020 17:00:00 12,3 12,3 2 1 NNW 1000,9 -
26.10.2020 16:00:00 12,3 12,3 8 4 WNW 1000,8 -
26.10.2020 15:00:00 12,5 12,5 5 3 WNW 1001,3 -
26.10.2020 14:00:00 12,8 12,6 2 1 W 1001,9 -
26.10.2020 13:00:00 12,7 12,7 4 2 NW 1002,1 -
26.10.2020 12:00:00 12,4 12,4 4 2 N 1002,1 -
26.10.2020 11:00:00 10,9 10,9 2 1 NE 1002,6 -
26.10.2020 10:00:00 10,4 10,4 4 2 SW 1003,4 -
26.10.2020 09:00:00 10,3 10,3 4 2 NW 1003,2 -
26.10.2020 08:00:00 10,5 10,5 5 3 NNE 1003,7 -
26.10.2020 07:00:00 10,7 10,7 4 2 NNE 1003,9 -
26.10.2020 06:00:00 10,8 10,8 5 3 ENE 1004,3 -
26.10.2020 05:00:00 10,7 10,7 2 1 NNW 1005,5 -
26.10.2020 04:00:00 10,5 10,5 2 1 WNW 1006,2 -
26.10.2020 03:00:00 10,5 10,5 2 1 WNW 1007,3 -
26.10.2020 02:00:00 10,3 10,3 4 2 NNE 1007,9 -

tt = temperature
td = dewpoint
ff = wind speed
dd = wind direction
ppp = reduced air pressure
rr = precipitation

Next stations